createdAt,value
2022-12-19T00:04:38.373Z,-1.60
2022-12-19T00:09:40.040Z,-1.78
2022-12-19T00:14:41.626Z,-1.49
2022-12-19T00:19:43.220Z,-1.66
2022-12-19T00:24:44.829Z,-1.81
2022-12-19T00:29:46.534Z,-1.99
2022-12-19T00:34:48.219Z,-2.09
2022-12-19T00:39:49.834Z,-2.14
2022-12-19T00:44:51.415Z,-2.26
2022-12-19T00:49:53.035Z,-2.34
2022-12-19T00:54:56.538Z,-2.36
2022-12-19T00:59:58.128Z,-2.42
2022-12-19T01:05:01.540Z,-2.43
2022-12-19T01:10:04.415Z,-2.38
2022-12-19T01:15:06.484Z,-2.33
2022-12-19T01:20:11.372Z,-2.30
2022-12-19T01:25:14.170Z,-2.34
2022-12-19T01:30:16.158Z,-2.29
2022-12-19T01:35:21.818Z,-2.36
2022-12-19T01:40:24.097Z,-2.44
2022-12-19T01:45:33.456Z,-2.42
2022-12-19T01:50:56.247Z,-2.38
2022-12-19T01:56:09.844Z,-2.26
2022-12-19T02:01:12.152Z,-2.16
2022-12-19T02:06:16.404Z,-2.22
2022-12-19T02:11:18.605Z,-2.22
2022-12-19T02:16:47.218Z,-2.36
2022-12-19T02:21:57.245Z,-2.36
2022-12-19T02:27:11.613Z,-2.33
2022-12-19T02:32:18.716Z,-2.24
2022-12-19T02:37:27.145Z,-2.17
2022-12-19T02:42:38.280Z,-2.35
2022-12-19T02:47:40.669Z,-2.41
2022-12-19T02:52:45.386Z,-2.43
2022-12-19T02:57:46.936Z,-2.38
2022-12-19T03:03:07.115Z,-2.33
2022-12-19T03:08:47.164Z,-2.33
2022-12-19T03:14:12.562Z,-2.44
2022-12-19T03:19:16.207Z,-2.37
2022-12-19T03:24:18.914Z,-2.44
2022-12-19T03:29:45.476Z,-2.51
2022-12-19T03:35:04.375Z,-2.48
2022-12-19T03:40:12.736Z,-2.48
2022-12-19T03:45:21.480Z,-2.40
2022-12-19T03:50:27.145Z,-2.48
2022-12-19T03:55:36.535Z,-2.40
2022-12-19T04:00:42.398Z,-2.25
2022-12-19T04:05:46.945Z,-2.26
2022-12-19T04:10:53.084Z,-2.44
2022-12-19T04:16:06.812Z,-2.45
2022-12-19T04:21:15.275Z,-2.45
2022-12-19T04:26:20.050Z,-2.45
2022-12-19T04:31:23.200Z,-2.46
2022-12-19T04:36:26.404Z,-2.42
2022-12-19T04:41:28.063Z,-2.47
2022-12-19T04:46:29.675Z,-2.52
2022-12-19T04:51:31.436Z,-2.51
2022-12-19T04:56:33.071Z,-2.74
2022-12-19T05:01:34.836Z,-2.84
2022-12-19T05:06:36.717Z,-2.80
2022-12-19T05:11:38.873Z,-2.64
2022-12-19T05:16:40.438Z,-2.52
2022-12-19T05:21:42.359Z,-2.35
2022-12-19T05:26:44.009Z,-2.27
2022-12-19T05:31:45.738Z,-2.27
2022-12-19T05:36:48.500Z,-2.33
2022-12-19T05:41:50.094Z,-2.32
2022-12-19T05:46:51.812Z,-2.23
2022-12-19T05:51:53.417Z,-2.15
2022-12-19T05:56:55.037Z,-2.17
2022-12-19T06:01:56.748Z,-1.98
2022-12-19T06:06:58.862Z,-2.11
2022-12-19T06:12:00.427Z,-2.11
2022-12-19T06:17:02.001Z,-2.16
2022-12-19T06:22:03.606Z,-2.12
2022-12-19T06:27:05.348Z,-2.00
2022-12-19T06:32:07.030Z,-2.00
2022-12-19T06:37:11.998Z,-1.88
2022-12-19T06:42:25.702Z,-1.90
2022-12-19T06:47:27.355Z,-1.67
2022-12-19T06:52:28.956Z,-1.67
2022-12-19T06:57:30.615Z,-1.75
2022-12-19T07:02:32.767Z,-1.75
2022-12-19T07:07:34.577Z,-1.53
2022-12-19T07:12:36.443Z,-1.44
2022-12-19T07:17:38.574Z,-1.38
2022-12-19T07:22:41.420Z,-1.41
2022-12-19T07:27:43.389Z,-1.36
2022-12-19T07:32:44.991Z,-1.45
2022-12-19T07:37:46.598Z,-1.33
2022-12-19T07:42:48.188Z,-1.14
2022-12-19T07:47:50.475Z,-1.27
2022-12-19T07:52:52.091Z,-1.25
2022-12-19T07:57:55.431Z,-0.93
2022-12-19T08:02:59.486Z,-0.68
2022-12-19T08:08:01.276Z,-0.33
2022-12-19T08:13:03.045Z,-0.11
2022-12-19T08:18:04.643Z,0.17
2022-12-19T08:23:06.253Z,0.49
2022-12-19T08:28:08.080Z,0.76
2022-12-19T08:33:09.685Z,1.00
2022-12-19T08:38:11.304Z,1.08
2022-12-19T08:43:12.938Z,1.24
2022-12-19T08:48:14.524Z,1.29
2022-12-19T08:53:20.140Z,1.55
2022-12-19T08:58:25.647Z,1.70
2022-12-19T09:03:29.523Z,1.90
2022-12-19T09:08:45.266Z,1.76
2022-12-19T09:13:48.058Z,1.76
2022-12-19T09:18:52.083Z,2.23
2022-12-19T09:23:56.155Z,2.62
2022-12-19T09:29:00.821Z,2.86
2022-12-19T09:34:04.488Z,3.10
2022-12-19T09:39:06.113Z,3.06
2022-12-19T09:44:46.767Z,3.30
2022-12-19T09:49:49.189Z,3.51
2022-12-19T09:55:06.213Z,3.79
2022-12-19T10:00:14.924Z,4.23
2022-12-19T10:06:15.529Z,4.77
2022-12-19T10:12:36.291Z,5.27
2022-12-19T10:16:35.655Z,5.69
2022-12-19T10:22:16.789Z,5.85
2022-12-19T10:27:28.968Z,5.54
2022-12-19T10:33:11.755Z,4.76
2022-12-19T10:38:34.090Z,4.36
2022-12-19T10:43:51.721Z,4.02
2022-12-19T10:48:53.542Z,3.71
2022-12-19T10:53:57.384Z,3.29
2022-12-19T10:59:00.436Z,3.19
2022-12-19T11:04:11.731Z,3.16
2022-12-19T11:09:29.364Z,3.07
2022-12-19T11:18:21.331Z,3.21
2022-12-19T11:29:36.449Z,3.47
2022-12-19T11:30:43.171Z,3.66
2022-12-19T11:36:05.059Z,3.81
2022-12-19T11:41:14.965Z,3.78
2022-12-19T11:46:43.694Z,3.72
2022-12-19T11:51:57.611Z,3.68
2022-12-19T11:56:59.702Z,3.56
2022-12-19T12:02:42.743Z,3.46
2022-12-19T12:10:31.979Z,3.28
2022-12-19T12:17:46.652Z,3.22
2022-12-19T12:31:04.352Z,3.19
2022-12-19T12:32:02.060Z,2.97
2022-12-19T12:32:04.537Z,3.12
2022-12-19T12:41:53.871Z,2.84
2022-12-19T12:47:12.828Z,2.87
2022-12-19T12:52:19.521Z,2.92
2022-12-19T12:57:27.239Z,2.95
2022-12-19T13:02:33.337Z,2.90
2022-12-19T13:07:50.322Z,2.78
2022-12-19T13:13:02.833Z,2.71
2022-12-19T13:18:32.111Z,2.73
2022-12-19T13:23:43.102Z,2.72
2022-12-19T13:28:44.723Z,2.66
2022-12-19T13:33:54.724Z,2.50
2022-12-19T13:39:57.714Z,2.31
2022-12-19T13:44:22.456Z,2.22
2022-12-19T13:49:33.336Z,2.16
2022-12-19T13:54:45.797Z,2.28
2022-12-19T13:59:54.342Z,2.32
2022-12-19T14:05:01.868Z,2.44
2022-12-19T14:11:31.742Z,2.34
2022-12-19T14:15:52.361Z,2.34
2022-12-19T14:22:11.421Z,2.13
2022-12-19T14:28:21.001Z,1.96
2022-12-19T14:33:39.102Z,1.84
2022-12-19T14:38:13.012Z,1.86
2022-12-19T14:43:58.918Z,1.90
2022-12-19T14:54:14.924Z,2.00
2022-12-19T14:59:48.642Z,2.17
2022-12-19T15:05:02.484Z,2.05
2022-12-19T15:10:59.070Z,1.94
2022-12-19T15:15:48.665Z,1.85
2022-12-19T15:20:51.884Z,1.88
2022-12-19T15:26:04.693Z,1.78
2022-12-19T15:31:18.347Z,1.93
2022-12-19T15:36:20.038Z,1.89
2022-12-19T15:41:24.190Z,1.91
2022-12-19T15:46:30.395Z,1.92
2022-12-19T15:51:32.167Z,1.99
2022-12-19T15:56:37.937Z,2.00
2022-12-19T16:01:39.580Z,2.01
2022-12-19T16:06:41.264Z,1.99
2022-12-19T16:11:42.888Z,1.95
2022-12-19T16:16:49.979Z,2.08
2022-12-19T16:21:52.082Z,2.05
2022-12-19T16:26:56.730Z,2.14
2022-12-19T16:32:00.414Z,2.10
2022-12-19T16:37:02.123Z,2.01
2022-12-19T16:42:05.040Z,1.97
2022-12-19T16:47:12.608Z,2.06
2022-12-19T16:52:14.269Z,2.09
2022-12-19T16:57:19.837Z,2.13
2022-12-19T17:02:45.346Z,2.16
2022-12-19T17:07:47.519Z,2.19
2022-12-19T17:12:49.455Z,2.17
2022-12-19T17:17:53.204Z,2.17
2022-12-19T17:22:54.822Z,2.29
2022-12-19T17:27:56.590Z,2.15
2022-12-19T17:32:58.198Z,1.98
2022-12-19T17:37:59.808Z,2.05
2022-12-19T17:43:01.718Z,2.29
2022-12-19T17:48:15.720Z,2.15
2022-12-19T17:53:17.331Z,2.12
2022-12-19T17:58:18.955Z,2.09
2022-12-19T18:03:23.913Z,2.13
2022-12-19T18:08:30.183Z,2.09
2022-12-19T18:13:32.248Z,2.21
2022-12-19T18:18:35.613Z,2.28
2022-12-19T18:23:37.221Z,2.20
2022-12-19T18:28:39.940Z,2.12
2022-12-19T18:33:45.365Z,2.05
2022-12-19T18:38:48.700Z,1.91
2022-12-19T18:43:50.381Z,1.88
2022-12-19T18:48:52.131Z,2.02
2022-12-19T18:53:53.781Z,1.87
2022-12-19T18:58:55.403Z,1.75
2022-12-19T19:03:59.239Z,1.75
2022-12-19T19:09:01.013Z,1.56
2022-12-19T19:14:21.117Z,1.26
2022-12-19T19:19:22.789Z,1.09
2022-12-19T19:24:24.497Z,1.10
2022-12-19T19:29:26.085Z,1.08
2022-12-19T19:34:31.519Z,0.85
2022-12-19T19:39:34.460Z,0.73
2022-12-19T19:44:36.098Z,0.65
2022-12-19T19:49:37.711Z,0.85
2022-12-19T19:54:39.322Z,1.26
2022-12-19T19:59:40.976Z,1.56
2022-12-19T20:04:42.632Z,1.70
2022-12-19T20:09:44.369Z,1.34
2022-12-19T20:14:47.122Z,0.74
2022-12-19T20:19:48.706Z,0.54
2022-12-19T20:24:50.309Z,0.49
2022-12-19T20:29:51.955Z,0.55
2022-12-19T20:34:53.551Z,0.51
2022-12-19T20:39:55.133Z,0.43
2022-12-19T20:44:56.726Z,0.51
2022-12-19T20:49:58.504Z,0.65
2022-12-19T20:55:00.116Z,0.38
2022-12-19T21:00:02.083Z,0.33
2022-12-19T21:05:03.979Z,0.20
2022-12-19T21:10:06.371Z,0.13
2022-12-19T21:15:08.125Z,0.22
2022-12-19T21:20:10.575Z,0.31
2022-12-19T21:25:12.213Z,0.36
2022-12-19T21:30:13.937Z,0.16
2022-12-19T21:35:15.627Z,-0.01
2022-12-19T21:40:18.573Z,-0.03
2022-12-19T21:45:20.198Z,-0.12
2022-12-19T21:50:21.771Z,-0.06
2022-12-19T21:55:23.332Z,0.07
2022-12-19T22:00:25.036Z,0.14
2022-12-19T22:05:26.708Z,0.18
2022-12-19T22:10:28.276Z,0.17
2022-12-19T22:15:29.881Z,0.20
2022-12-19T22:20:31.524Z,0.15
2022-12-19T22:25:33.106Z,-0.02
2022-12-19T22:30:35.990Z,-0.23
2022-12-19T22:35:37.819Z,-0.35
2022-12-19T22:40:39.642Z,-0.36
2022-12-19T22:45:41.863Z,-0.32
2022-12-19T22:50:47.118Z,-0.26
2022-12-19T22:55:48.914Z,-0.30
2022-12-19T23:00:50.760Z,-0.40
2022-12-19T23:05:52.563Z,-0.54
2022-12-19T23:10:54.459Z,-0.56
2022-12-19T23:15:57.701Z,-0.61
2022-12-19T23:21:09.619Z,-0.54
2022-12-19T23:26:17.309Z,-0.48
2022-12-19T23:31:19.715Z,-0.36
2022-12-19T23:36:45.300Z,-0.47
2022-12-19T23:41:44.294Z,-0.62
2022-12-19T23:46:46.317Z,-0.63
2022-12-19T23:51:48.139Z,-0.71
2022-12-19T23:56:50.001Z,-0.81
